sensor_id;sensor_type;location;lat;lon;timestamp;temperature;humidity
68217;DHT22;55037;52.354;4.992;2023-04-16T00:02:13;10.40;81.60
68217;DHT22;55037;52.354;4.992;2023-04-16T00:04:40;10.40;81.90
68217;DHT22;55037;52.354;4.992;2023-04-16T00:07:08;10.40;82.20
68217;DHT22;55037;52.354;4.992;2023-04-16T00:09:35;10.40;82.50
68217;DHT22;55037;52.354;4.992;2023-04-16T00:12:03;10.40;82.70
68217;DHT22;55037;52.354;4.992;2023-04-16T00:14:30;10.40;82.90
68217;DHT22;55037;52.354;4.992;2023-04-16T00:16:57;10.40;83.10
68217;DHT22;55037;52.354;4.992;2023-04-16T00:19:25;10.40;83.20
68217;DHT22;55037;52.354;4.992;2023-04-16T00:21:52;10.40;83.20
68217;DHT22;55037;52.354;4.992;2023-04-16T00:24:19;10.40;83.40
68217;DHT22;55037;52.354;4.992;2023-04-16T00:26:47;10.40;83.60
68217;DHT22;55037;52.354;4.992;2023-04-16T00:29:14;10.40;83.70
68217;DHT22;55037;52.354;4.992;2023-04-16T00:31:41;10.40;83.90
68217;DHT22;55037;52.354;4.992;2023-04-16T00:34:08;10.40;84.00
68217;DHT22;55037;52.354;4.992;2023-04-16T00:36:36;10.40;84.10
68217;DHT22;55037;52.354;4.992;2023-04-16T00:39:04;10.40;84.30
68217;DHT22;55037;52.354;4.992;2023-04-16T00:41:31;10.40;84.10
68217;DHT22;55037;52.354;4.992;2023-04-16T00:43:58;10.40;84.30
68217;DHT22;55037;52.354;4.992;2023-04-16T00:46:26;10.40;84.30
68217;DHT22;55037;52.354;4.992;2023-04-16T00:48:54;10.40;84.50
68217;DHT22;55037;52.354;4.992;2023-04-16T00:51:22;10.40;84.60
68217;DHT22;55037;52.354;4.992;2023-04-16T00:53:50;10.40;84.70
68217;DHT22;55037;52.354;4.992;2023-04-16T00:56:18;10.40;84.70
68217;DHT22;55037;52.354;4.992;2023-04-16T00:58:47;10.50;84.80
68217;DHT22;55037;52.354;4.992;2023-04-16T01:01:14;10.50;84.80
68217;DHT22;55037;52.354;4.992;2023-04-16T01:03:44;10.50;84.70
68217;DHT22;55037;52.354;4.992;2023-04-16T01:06:12;10.50;84.90
68217;DHT22;55037;52.354;4.992;2023-04-16T01:08:39;10.50;86.00
68217;DHT22;55037;52.354;4.992;2023-04-16T01:11:07;10.50;85.10
68217;DHT22;55037;52.354;4.992;2023-04-16T01:13:34;10.50;85.20
68217;DHT22;55037;52.354;4.992;2023-04-16T01:16:10;10.50;85.40
68217;DHT22;55037;52.354;4.992;2023-04-16T01:18:38;10.50;85.50
68217;DHT22;55037;52.354;4.992;2023-04-16T01:21:05;10.60;85.50
68217;DHT22;55037;52.354;4.992;2023-04-16T01:23:33;10.60;85.40
68217;DHT22;55037;52.354;4.992;2023-04-16T01:26:01;10.60;85.30
68217;DHT22;55037;52.354;4.992;2023-04-16T01:28:31;10.60;85.60
68217;DHT22;55037;52.354;4.992;2023-04-16T01:30:59;10.60;85.40
68217;DHT22;55037;52.354;4.992;2023-04-16T01:33:36;10.60;85.50
68217;DHT22;55037;52.354;4.992;2023-04-16T01:36:03;10.60;85.60
68217;DHT22;55037;52.354;4.992;2023-04-16T01:38:31;10.60;85.80
68217;DHT22;55037;52.354;4.992;2023-04-16T01:40:58;10.70;85.80
68217;DHT22;55037;52.354;4.992;2023-04-16T01:43:26;10.60;85.70
68217;DHT22;55037;52.354;4.992;2023-04-16T01:46:08;10.60;85.80
68217;DHT22;55037;52.354;4.992;2023-04-16T01:48:37;10.60;85.70
68217;DHT22;55037;52.354;4.992;2023-04-16T01:51:04;10.70;85.80
68217;DHT22;55037;52.354;4.992;2023-04-16T01:53:31;10.70;85.90
68217;DHT22;55037;52.354;4.992;2023-04-16T01:56:02;10.70;85.80
68217;DHT22;55037;52.354;4.992;2023-04-16T01:58:31;10.70;85.70
68217;DHT22;55037;52.354;4.992;2023-04-16T02:00:59;10.70;85.80
68217;DHT22;55037;52.354;4.992;2023-04-16T02:03:27;10.70;85.80
68217;DHT22;55037;52.354;4.992;2023-04-16T02:05:54;10.70;86.00
68217;DHT22;55037;52.354;4.992;2023-04-16T02:08:22;10.70;85.90
68217;DHT22;55037;52.354;4.992;2023-04-16T02:10:49;10.70;86.10
68217;DHT22;55037;52.354;4.992;2023-04-16T02:13:17;10.70;86.00
68217;DHT22;55037;52.354;4.992;2023-04-16T02:15:47;10.70;86.10
68217;DHT22;55037;52.354;4.992;2023-04-16T02:18:19;10.80;86.10
68217;DHT22;55037;52.354;4.992;2023-04-16T02:20:47;10.70;86.20
68217;DHT22;55037;52.354;4.992;2023-04-16T02:23:16;10.70;86.20
68217;DHT22;55037;52.354;4.992;2023-04-16T02:25:45;10.70;86.20
68217;DHT22;55037;52.354;4.992;2023-04-16T02:28:15;10.70;86.20
68217;DHT22;55037;52.354;4.992;2023-04-16T02:30:44;10.70;86.20
68217;DHT22;55037;52.354;4.992;2023-04-16T02:33:13;10.70;86.20
68217;DHT22;55037;52.354;4.992;2023-04-16T02:35:51;10.70;86.30
68217;DHT22;55037;52.354;4.992;2023-04-16T02:38:19;10.70;86.40
68217;DHT22;55037;52.354;4.992;2023-04-16T02:40:46;10.70;86.40
68217;DHT22;55037;52.354;4.992;2023-04-16T02:43:15;10.80;86.50
68217;DHT22;55037;52.354;4.992;2023-04-16T02:45:42;10.70;86.40
68217;DHT22;55037;52.354;4.992;2023-04-16T02:48:10;10.80;86.50
68217;DHT22;55037;52.354;4.992;2023-04-16T02:50:38;10.70;86.30
68217;DHT22;55037;52.354;4.992;2023-04-16T02:53:05;10.80;86.60
68217;DHT22;55037;52.354;4.992;2023-04-16T02:55:33;10.80;86.40
68217;DHT22;55037;52.354;4.992;2023-04-16T02:58:00;10.80;86.60
68217;DHT22;55037;52.354;4.992;2023-04-16T03:00:28;10.80;86.50
68217;DHT22;55037;52.354;4.992;2023-04-16T03:02:55;10.80;86.50
68217;DHT22;55037;52.354;4.992;2023-04-16T03:05:23;10.80;86.50
68217;DHT22;55037;52.354;4.992;2023-04-16T03:07:50;10.80;86.70
68217;DHT22;55037;52.354;4.992;2023-04-16T03:10:23;10.80;86.40
68217;DHT22;55037;52.354;4.992;2023-04-16T03:12:51;10.80;86.50
68217;DHT22;55037;52.354;4.992;2023-04-16T03:15:18;10.80;86.50
68217;DHT22;55037;52.354;4.992;2023-04-16T03:17:45;10.80;86.60
68217;DHT22;55037;52.354;4.992;2023-04-16T03:20:12;10.80;86.50
68217;DHT22;55037;52.354;4.992;2023-04-16T03:22:40;10.80;86.50
68217;DHT22;55037;52.354;4.992;2023-04-16T03:25:08;10.80;86.80
68217;DHT22;55037;52.354;4.992;2023-04-16T03:27:35;10.80;86.70
68217;DHT22;55037;52.354;4.992;2023-04-16T03:30:04;10.80;86.90
68217;DHT22;55037;52.354;4.992;2023-04-16T03:32:33;10.80;86.80
68217;DHT22;55037;52.354;4.992;2023-04-16T03:35:03;10.80;86.80
68217;DHT22;55037;52.354;4.992;2023-04-16T03:37:31;10.80;86.60
68217;DHT22;55037;52.354;4.992;2023-04-16T03:39:58;10.80;86.70
68217;DHT22;55037;52.354;4.992;2023-04-16T03:42:26;10.80;86.90
68217;DHT22;55037;52.354;4.992;2023-04-16T03:44:53;10.80;86.70
68217;DHT22;55037;52.354;4.992;2023-04-16T03:47:21;10.80;86.60
68217;DHT22;55037;52.354;4.992;2023-04-16T03:49:52;10.80;86.60
68217;DHT22;55037;52.354;4.992;2023-04-16T03:52:19;10.70;86.70
68217;DHT22;55037;52.354;4.992;2023-04-16T03:54:46;10.70;86.70
68217;DHT22;55037;52.354;4.992;2023-04-16T03:57:22;10.70;86.90
68217;DHT22;55037;52.354;4.992;2023-04-16T03:59:50;10.60;86.90
68217;DHT22;55037;52.354;4.992;2023-04-16T04:02:18;10.60;87.10
68217;DHT22;55037;52.354;4.992;2023-04-16T04:04:45;10.60;87.20
68217;DHT22;55037;52.354;4.992;2023-04-16T04:07:12;10.60;87.30
68217;DHT22;55037;52.354;4.992;2023-04-16T04:09:41;10.50;87.30
68217;DHT22;55037;52.354;4.992;2023-04-16T04:12:09;10.50;87.70
68217;DHT22;55037;52.354;4.992;2023-04-16T04:14:38;10.50;87.80
68217;DHT22;55037;52.354;4.992;2023-04-16T04:17:07;10.50;87.90
68217;DHT22;55037;52.354;4.992;2023-04-16T04:19:34;10.60;88.10
68217;DHT22;55037;52.354;4.992;2023-04-16T04:22:03;10.60;87.90
68217;DHT22;55037;52.354;4.992;2023-04-16T04:24:30;10.60;87.80
68217;DHT22;55037;52.354;4.992;2023-04-16T04:26:58;10.60;87.90
68217;DHT22;55037;52.354;4.992;2023-04-16T04:29:25;10.60;88.00
68217;DHT22;55037;52.354;4.992;2023-04-16T04:31:52;10.50;88.00
68217;DHT22;55037;52.354;4.992;2023-04-16T04:34:22;10.60;88.20
68217;DHT22;55037;52.354;4.992;2023-04-16T04:36:49;10.60;88.40
68217;DHT22;55037;52.354;4.992;2023-04-16T04:39:17;10.60;88.40
68217;DHT22;55037;52.354;4.992;2023-04-16T04:41:48;10.70;88.40
68217;DHT22;55037;52.354;4.992;2023-04-16T04:44:17;10.70;88.30
68217;DHT22;55037;52.354;4.992;2023-04-16T04:46:44;10.70;88.20
68217;DHT22;55037;52.354;4.992;2023-04-16T04:49:14;10.70;88.40
68217;DHT22;55037;52.354;4.992;2023-04-16T04:51:41;10.70;88.30
68217;DHT22;55037;52.354;4.992;2023-04-16T04:54:09;10.70;88.40
68217;DHT22;55037;52.354;4.992;2023-04-16T04:56:36;10.70;88.30
68217;DHT22;55037;52.354;4.992;2023-04-16T04:59:03;10.70;88.30
68217;DHT22;55037;52.354;4.992;2023-04-16T05:01:30;10.70;88.40
68217;DHT22;55037;52.354;4.992;2023-04-16T05:03:58;10.70;88.30
68217;DHT22;55037;52.354;4.992;2023-04-16T05:06:25;10.70;88.40
68217;DHT22;55037;52.354;4.992;2023-04-16T05:08:55;10.70;88.40
68217;DHT22;55037;52.354;4.992;2023-04-16T05:11:23;10.70;88.50
68217;DHT22;55037;52.354;4.992;2023-04-16T05:13:50;10.70;88.70
68217;DHT22;55037;52.354;4.992;2023-04-16T05:16:18;10.70;88.70
68217;DHT22;55037;52.354;4.992;2023-04-16T05:18:45;10.80;88.70
68217;DHT22;55037;52.354;4.992;2023-04-16T05:21:12;10.70;88.70
68217;DHT22;55037;52.354;4.992;2023-04-16T05:23:39;10.70;88.50
68217;DHT22;55037;52.354;4.992;2023-04-16T05:26:06;10.70;88.70
68217;DHT22;55037;52.354;4.992;2023-04-16T05:28:34;10.70;88.70
68217;DHT22;55037;52.354;4.992;2023-04-16T05:31:01;10.80;88.80
68217;DHT22;55037;52.354;4.992;2023-04-16T05:33:28;10.80;89.70
68217;DHT22;55037;52.354;4.992;2023-04-16T05:35:55;10.80;88.80
68217;DHT22;55037;52.354;4.992;2023-04-16T05:38:23;10.80;88.80
68217;DHT22;55037;52.354;4.992;2023-04-16T05:40:50;10.80;88.80
68217;DHT22;55037;52.354;4.992;2023-04-16T05:43:17;10.80;88.80
68217;DHT22;55037;52.354;4.992;2023-04-16T05:45:44;10.80;88.80
68217;DHT22;55037;52.354;4.992;2023-04-16T05:48:12;10.90;88.80
68217;DHT22;55037;52.354;4.992;2023-04-16T05:50:39;10.90;88.80
68217;DHT22;55037;52.354;4.992;2023-04-16T05:53:08;10.90;88.80
68217;DHT22;55037;52.354;4.992;2023-04-16T05:55:35;10.90;88.80
68217;DHT22;55037;52.354;4.992;2023-04-16T05:58:02;10.90;88.80
68217;DHT22;55037;52.354;4.992;2023-04-16T06:00:34;10.90;88.70
68217;DHT22;55037;52.354;4.992;2023-04-16T06:03:02;11.00;88.90
68217;DHT22;55037;52.354;4.992;2023-04-16T06:05:29;11.00;88.90
68217;DHT22;55037;52.354;4.992;2023-04-16T06:07:58;11.00;88.90
68217;DHT22;55037;52.354;4.992;2023-04-16T06:10:25;11.00;89.40
68217;DHT22;55037;52.354;4.992;2023-04-16T06:12:53;11.10;89.00
68217;DHT22;55037;52.354;4.992;2023-04-16T06:15:20;11.10;88.90
68217;DHT22;55037;52.354;4.992;2023-04-16T06:17:48;11.10;89.10
68217;DHT22;55037;52.354;4.992;2023-04-16T06:20:15;11.10;88.70
68217;DHT22;55037;52.354;4.992;2023-04-16T06:22:43;11.10;89.00
68217;DHT22;55037;52.354;4.992;2023-04-16T06:25:10;11.20;89.00
68217;DHT22;55037;52.354;4.992;2023-04-16T06:27:37;11.20;88.70
68217;DHT22;55037;52.354;4.992;2023-04-16T06:30:09;11.20;89.00
68217;DHT22;55037;52.354;4.992;2023-04-16T06:32:37;11.20;88.90
68217;DHT22;55037;52.354;4.992;2023-04-16T06:35:05;11.20;88.90
68217;DHT22;55037;52.354;4.992;2023-04-16T06:37:32;11.20;90.00
68217;DHT22;55037;52.354;4.992;2023-04-16T06:39:59;11.20;88.80
68217;DHT22;55037;52.354;4.992;2023-04-16T06:42:27;11.20;89.00
68217;DHT22;55037;52.354;4.992;2023-04-16T06:44:54;11.30;89.00
68217;DHT22;55037;52.354;4.992;2023-04-16T06:47:21;11.30;89.00
68217;DHT22;55037;52.354;4.992;2023-04-16T06:49:48;11.30;88.90
68217;DHT22;55037;52.354;4.992;2023-04-16T06:52:15;11.30;88.70
68217;DHT22;55037;52.354;4.992;2023-04-16T06:54:43;11.30;88.80
68217;DHT22;55037;52.354;4.992;2023-04-16T06:57:10;11.30;88.80
68217;DHT22;55037;52.354;4.992;2023-04-16T06:59:37;11.30;88.60
68217;DHT22;55037;52.354;4.992;2023-04-16T07:02:06;11.30;88.80
68217;DHT22;55037;52.354;4.992;2023-04-16T07:04:35;11.30;88.90
68217;DHT22;55037;52.354;4.992;2023-04-16T07:07:02;11.30;89.00
68217;DHT22;55037;52.354;4.992;2023-04-16T07:09:29;11.30;89.00
68217;DHT22;55037;52.354;4.992;2023-04-16T07:11:56;11.30;89.00
68217;DHT22;55037;52.354;4.992;2023-04-16T07:14:24;11.30;88.70
68217;DHT22;55037;52.354;4.992;2023-04-16T07:16:51;11.30;90.00
68217;DHT22;55037;52.354;4.992;2023-04-16T07:19:18;11.40;89.10
68217;DHT22;55037;52.354;4.992;2023-04-16T07:21:46;11.40;89.00
68217;DHT22;55037;52.354;4.992;2023-04-16T07:24:13;11.50;89.00
68217;DHT22;55037;52.354;4.992;2023-04-16T07:26:40;11.50;88.70
68217;DHT22;55037;52.354;4.992;2023-04-16T07:29:07;11.50;88.60
68217;DHT22;55037;52.354;4.992;2023-04-16T07:31:35;11.50;88.90
68217;DHT22;55037;52.354;4.992;2023-04-16T07:34:02;11.50;88.80
68217;DHT22;55037;52.354;4.992;2023-04-16T07:36:29;11.60;88.90
68217;DHT22;55037;52.354;4.992;2023-04-16T07:38:57;11.60;88.70
68217;DHT22;55037;52.354;4.992;2023-04-16T07:41:25;11.60;88.50
68217;DHT22;55037;52.354;4.992;2023-04-16T07:43:52;11.60;88.50
68217;DHT22;55037;52.354;4.992;2023-04-16T07:46:19;11.60;88.70
68217;DHT22;55037;52.354;4.992;2023-04-16T07:48:50;11.60;88.60
68217;DHT22;55037;52.354;4.992;2023-04-16T07:51:17;11.70;88.70
68217;DHT22;55037;52.354;4.992;2023-04-16T07:53:44;11.70;88.30
68217;DHT22;55037;52.354;4.992;2023-04-16T07:56:12;11.60;88.30
68217;DHT22;55037;52.354;4.992;2023-04-16T07:58:39;11.60;88.40
68217;DHT22;55037;52.354;4.992;2023-04-16T08:01:06;11.60;88.60
68217;DHT22;55037;52.354;4.992;2023-04-16T08:03:33;11.70;88.50
68217;DHT22;55037;52.354;4.992;2023-04-16T08:06:01;11.60;88.50
68217;DHT22;55037;52.354;4.992;2023-04-16T08:08:28;11.70;88.60
68217;DHT22;55037;52.354;4.992;2023-04-16T08:10:56;11.70;88.70
68217;DHT22;55037;52.354;4.992;2023-04-16T08:13:24;11.80;88.90
68217;DHT22;55037;52.354;4.992;2023-04-16T08:15:51;11.90;88.90
68217;DHT22;55037;52.354;4.992;2023-04-16T08:18:18;11.90;88.40
68217;DHT22;55037;52.354;4.992;2023-04-16T08:20:45;12.00;88.60
68217;DHT22;55037;52.354;4.992;2023-04-16T08:23:13;12.10;88.70
68217;DHT22;55037;52.354;4.992;2023-04-16T08:25:40;12.20;88.60
68217;DHT22;55037;52.354;4.992;2023-04-16T08:28:07;12.20;88.30
68217;DHT22;55037;52.354;4.992;2023-04-16T08:30:34;12.30;88.10
68217;DHT22;55037;52.354;4.992;2023-04-16T08:33:02;12.30;87.80
68217;DHT22;55037;52.354;4.992;2023-04-16T08:35:29;12.30;89.00
68217;DHT22;55037;52.354;4.992;2023-04-16T08:37:56;12.30;88.00
68217;DHT22;55037;52.354;4.992;2023-04-16T08:40:28;12.40;88.00
68217;DHT22;55037;52.354;4.992;2023-04-16T08:42:58;12.40;87.90
68217;DHT22;55037;52.354;4.992;2023-04-16T08:45:26;12.50;87.70
68217;DHT22;55037;52.354;4.992;2023-04-16T08:47:53;12.40;87.90
68217;DHT22;55037;52.354;4.992;2023-04-16T08:50:25;12.50;87.80
68217;DHT22;55037;52.354;4.992;2023-04-16T08:52:58;12.40;87.30
68217;DHT22;55037;52.354;4.992;2023-04-16T08:55:31;12.40;87.60
68217;DHT22;55037;52.354;4.992;2023-04-16T08:58:07;12.50;88.00
68217;DHT22;55037;52.354;4.992;2023-04-16T09:00:36;12.50;87.80
68217;DHT22;55037;52.354;4.992;2023-04-16T09:03:05;12.60;87.90
68217;DHT22;55037;52.354;4.992;2023-04-16T09:05:34;12.50;87.60
68217;DHT22;55037;52.354;4.992;2023-04-16T09:08:01;12.60;87.50
68217;DHT22;55037;52.354;4.992;2023-04-16T09:10:29;12.60;87.50
68217;DHT22;55037;52.354;4.992;2023-04-16T09:12:56;12.60;87.50
68217;DHT22;55037;52.354;4.992;2023-04-16T09:15:24;12.70;87.70
68217;DHT22;55037;52.354;4.992;2023-04-16T09:17:52;12.70;87.30
68217;DHT22;55037;52.354;4.992;2023-04-16T09:20:20;12.70;87.10
68217;DHT22;55037;52.354;4.992;2023-04-16T09:22:47;12.70;87.00
68217;DHT22;55037;52.354;4.992;2023-04-16T09:25:14;12.70;87.30
68217;DHT22;55037;52.354;4.992;2023-04-16T09:27:42;12.70;87.20
68217;DHT22;55037;52.354;4.992;2023-04-16T09:30:24;12.70;87.20
68217;DHT22;55037;52.354;4.992;2023-04-16T09:33:15;12.70;87.60
68217;DHT22;55037;52.354;4.992;2023-04-16T09:35:47;12.80;87.40
68217;DHT22;55037;52.354;4.992;2023-04-16T09:38:15;12.80;87.00
68217;DHT22;55037;52.354;4.992;2023-04-16T09:40:42;12.90;87.10
68217;DHT22;55037;52.354;4.992;2023-04-16T09:43:13;12.90;87.00
68217;DHT22;55037;52.354;4.992;2023-04-16T09:45:52;12.90;87.10
68217;DHT22;55037;52.354;4.992;2023-04-16T09:48:32;13.00;86.50
68217;DHT22;55037;52.354;4.992;2023-04-16T09:51:00;12.90;86.50
68217;DHT22;55037;52.354;4.992;2023-04-16T09:53:29;12.90;86.90
68217;DHT22;55037;52.354;4.992;2023-04-16T09:55:58;13.00;86.70
68217;DHT22;55037;52.354;4.992;2023-04-16T09:58:26;13.00;86.90
68217;DHT22;55037;52.354;4.992;2023-04-16T10:01:06;13.00;87.00
68217;DHT22;55037;52.354;4.992;2023-04-16T10:03:35;13.10;86.90
68217;DHT22;55037;52.354;4.992;2023-04-16T10:06:13;13.20;86.70
68217;DHT22;55037;52.354;4.992;2023-04-16T10:08:51;13.30;87.00
68217;DHT22;55037;52.354;4.992;2023-04-16T10:11:19;13.40;86.80
68217;DHT22;55037;52.354;4.992;2023-04-16T10:13:48;13.40;86.50
68217;DHT22;55037;52.354;4.992;2023-04-16T10:16:15;13.50;86.50
68217;DHT22;55037;52.354;4.992;2023-04-16T10:18:44;13.50;86.00
68217;DHT22;55037;52.354;4.992;2023-04-16T10:21:12;13.50;86.00
68217;DHT22;55037;52.354;4.992;2023-04-16T10:23:42;13.50;85.70
68217;DHT22;55037;52.354;4.992;2023-04-16T10:26:10;13.40;86.20
68217;DHT22;55037;52.354;4.992;2023-04-16T10:28:38;13.50;86.30
68217;DHT22;55037;52.354;4.992;2023-04-16T10:31:07;13.50;86.00
68217;DHT22;55037;52.354;4.992;2023-04-16T10:33:36;13.50;85.40
68217;DHT22;55037;52.354;4.992;2023-04-16T10:36:13;13.50;85.70
68217;DHT22;55037;52.354;4.992;2023-04-16T10:38:46;13.60;86.10
68217;DHT22;55037;52.354;4.992;2023-04-16T10:41:13;13.60;85.70
68217;DHT22;55037;52.354;4.992;2023-04-16T10:43:47;13.70;85.80
68217;DHT22;55037;52.354;4.992;2023-04-16T10:49:00;13.90;85.60
68217;DHT22;55037;52.354;4.992;2023-04-16T10:51:33;13.90;85.00
68217;DHT22;55037;52.354;4.992;2023-04-16T10:56:40;13.90;85.40
68217;DHT22;55037;52.354;4.992;2023-04-16T10:59:10;13.90;84.60
68217;DHT22;55037;52.354;4.992;2023-04-16T11:01:42;14.00;84.50
68217;DHT22;55037;52.354;4.992;2023-04-16T11:14:53;14.80;84.90
68217;DHT22;55037;52.354;4.992;2023-04-16T11:17:21;15.20;83.60
68217;DHT22;55037;52.354;4.992;2023-04-16T11:19:49;15.40;82.80
68217;DHT22;55037;52.354;4.992;2023-04-16T11:22:19;15.60;82.10
68217;DHT22;55037;52.354;4.992;2023-04-16T11:24:52;15.60;81.60
68217;DHT22;55037;52.354;4.992;2023-04-16T11:27:19;15.80;81.70
68217;DHT22;55037;52.354;4.992;2023-04-16T11:29:56;15.90;80.90
68217;DHT22;55037;52.354;4.992;2023-04-16T11:32:24;15.90;80.80
68217;DHT22;55037;52.354;4.992;2023-04-16T11:34:51;15.90;81.00
68217;DHT22;55037;52.354;4.992;2023-04-16T11:37:34;15.90;80.90
68217;DHT22;55037;52.354;4.992;2023-04-16T11:40:03;16.00;79.80
68217;DHT22;55037;52.354;4.992;2023-04-16T11:42:36;15.80;79.60
68217;DHT22;55037;52.354;4.992;2023-04-16T11:45:04;15.60;79.30
68217;DHT22;55037;52.354;4.992;2023-04-16T11:47:45;15.40;79.80
68217;DHT22;55037;52.354;4.992;2023-04-16T11:50:23;15.40;81.10
68217;DHT22;55037;52.354;4.992;2023-04-16T11:52:55;15.50;80.80
68217;DHT22;55037;52.354;4.992;2023-04-16T11:55:23;15.60;80.70
68217;DHT22;55037;52.354;4.992;2023-04-16T11:57:50;15.70;80.40
68217;DHT22;55037;52.354;4.992;2023-04-16T12:00:19;15.60;80.00
68217;DHT22;55037;52.354;4.992;2023-04-16T12:02:52;15.60;79.80
68217;DHT22;55037;52.354;4.992;2023-04-16T12:05:37;15.50;79.70
68217;DHT22;55037;52.354;4.992;2023-04-16T12:08:09;15.40;80.60
68217;DHT22;55037;52.354;4.992;2023-04-16T12:10:52;15.60;81.20
68217;DHT22;55037;52.354;4.992;2023-04-16T12:13:20;15.70;80.80
68217;DHT22;55037;52.354;4.992;2023-04-16T12:15:51;15.90;80.20
68217;DHT22;55037;52.354;4.992;2023-04-16T12:18:21;15.90;79.90
68217;DHT22;55037;52.354;4.992;2023-04-16T12:20:49;15.90;79.70
68217;DHT22;55037;52.354;4.992;2023-04-16T12:23:27;16.00;79.70
68217;DHT22;55037;52.354;4.992;2023-04-16T12:25:55;16.10;80.00
68217;DHT22;55037;52.354;4.992;2023-04-16T12:28:33;16.20;79.40
68217;DHT22;55037;52.354;4.992;2023-04-16T12:31:01;16.30;79.20
68217;DHT22;55037;52.354;4.992;2023-04-16T12:33:29;16.40;79.00
68217;DHT22;55037;52.354;4.992;2023-04-16T12:35:57;16.60;79.10
68217;DHT22;55037;52.354;4.992;2023-04-16T12:38:25;16.60;78.60
68217;DHT22;55037;52.354;4.992;2023-04-16T12:40:52;16.70;79.20
68217;DHT22;55037;52.354;4.992;2023-04-16T12:43:23;16.80;78.60
68217;DHT22;55037;52.354;4.992;2023-04-16T12:45:50;17.00;78.30
68217;DHT22;55037;52.354;4.992;2023-04-16T12:48:18;17.10;77.50
68217;DHT22;55037;52.354;4.992;2023-04-16T12:50:45;17.10;77.30
68217;DHT22;55037;52.354;4.992;2023-04-16T12:53:12;17.20;77.50
68217;DHT22;55037;52.354;4.992;2023-04-16T12:55:40;17.30;77.40
68217;DHT22;55037;52.354;4.992;2023-04-16T12:58:07;17.40;77.00
68217;DHT22;55037;52.354;4.992;2023-04-16T13:00:38;17.30;76.30
68217;DHT22;55037;52.354;4.992;2023-04-16T13:03:05;17.20;76.40
68217;DHT22;55037;52.354;4.992;2023-04-16T13:05:33;17.10;76.50
68217;DHT22;55037;52.354;4.992;2023-04-16T13:08:00;17.10;76.60
68217;DHT22;55037;52.354;4.992;2023-04-16T13:10:28;17.00;76.70
68217;DHT22;55037;52.354;4.992;2023-04-16T13:12:55;17.00;76.50
68217;DHT22;55037;52.354;4.992;2023-04-16T13:15:22;17.00;76.80
68217;DHT22;55037;52.354;4.992;2023-04-16T13:17:50;17.00;77.10
68217;DHT22;55037;52.354;4.992;2023-04-16T13:20:17;17.10;78.10
68217;DHT22;55037;52.354;4.992;2023-04-16T13:22:44;17.30;77.00
68217;DHT22;55037;52.354;4.992;2023-04-16T13:25:11;17.40;76.40
68217;DHT22;55037;52.354;4.992;2023-04-16T13:27:39;17.50;75.70
68217;DHT22;55037;52.354;4.992;2023-04-16T13:30:06;17.30;75.10
68217;DHT22;55037;52.354;4.992;2023-04-16T13:32:34;17.10;75.00
68217;DHT22;55037;52.354;4.992;2023-04-16T13:35:01;16.80;75.20
68217;DHT22;55037;52.354;4.992;2023-04-16T13:37:28;16.50;75.80
68217;DHT22;55037;52.354;4.992;2023-04-16T13:39:56;16.20;76.20
68217;DHT22;55037;52.354;4.992;2023-04-16T13:42:23;16.00;76.70
68217;DHT22;55037;52.354;4.992;2023-04-16T13:44:50;15.90;77.40
68217;DHT22;55037;52.354;4.992;2023-04-16T13:47:20;15.80;78.00
68217;DHT22;55037;52.354;4.992;2023-04-16T13:49:47;15.90;78.30
68217;DHT22;55037;52.354;4.992;2023-04-16T13:52:15;15.90;78.20
68217;DHT22;55037;52.354;4.992;2023-04-16T13:54:42;16.00;78.40
68217;DHT22;55037;52.354;4.992;2023-04-16T13:57:18;16.20;78.30
68217;DHT22;55037;52.354;4.992;2023-04-16T13:59:45;16.30;78.30
68217;DHT22;55037;52.354;4.992;2023-04-16T14:02:13;16.30;77.60
68217;DHT22;55037;52.354;4.992;2023-04-16T14:04:40;16.30;77.30
68217;DHT22;55037;52.354;4.992;2023-04-16T14:07:08;16.20;77.10
68217;DHT22;55037;52.354;4.992;2023-04-16T14:09:35;16.10;77.30
68217;DHT22;55037;52.354;4.992;2023-04-16T14:12:02;16.10;77.30
68217;DHT22;55037;52.354;4.992;2023-04-16T14:14:29;16.10;77.70
68217;DHT22;55037;52.354;4.992;2023-04-16T14:16:57;16.20;78.20
68217;DHT22;55037;52.354;4.992;2023-04-16T14:19:24;16.30;77.80
68217;DHT22;55037;52.354;4.992;2023-04-16T14:21:52;16.30;76.80
68217;DHT22;55037;52.354;4.992;2023-04-16T14:24:20;16.20;76.60
68217;DHT22;55037;52.354;4.992;2023-04-16T14:26:47;16.10;76.80
68217;DHT22;55037;52.354;4.992;2023-04-16T14:29:14;16.10;77.30
68217;DHT22;55037;52.354;4.992;2023-04-16T14:31:42;16.10;77.20
68217;DHT22;55037;52.354;4.992;2023-04-16T14:34:09;16.10;77.60
68217;DHT22;55037;52.354;4.992;2023-04-16T14:36:39;16.10;77.30
68217;DHT22;55037;52.354;4.992;2023-04-16T14:39:06;16.00;77.20
68217;DHT22;55037;52.354;4.992;2023-04-16T14:41:34;15.90;77.40
68217;DHT22;55037;52.354;4.992;2023-04-16T14:44:02;15.90;77.50
68217;DHT22;55037;52.354;4.992;2023-04-16T14:46:31;16.00;76.10
68217;DHT22;55037;52.354;4.992;2023-04-16T14:48:59;16.00;76.90
68217;DHT22;55037;52.354;4.992;2023-04-16T14:51:27;15.90;77.10
68217;DHT22;55037;52.354;4.992;2023-04-16T14:53:55;15.90;77.60
68217;DHT22;55037;52.354;4.992;2023-04-16T14:56:22;16.10;78.10
68217;DHT22;55037;52.354;4.992;2023-04-16T14:58:49;16.20;77.60
68217;DHT22;55037;52.354;4.992;2023-04-16T15:01:17;16.20;77.40
68217;DHT22;55037;52.354;4.992;2023-04-16T15:03:44;16.20;76.90
68217;DHT22;55037;52.354;4.992;2023-04-16T15:06:12;16.10;76.80
68217;DHT22;55037;52.354;4.992;2023-04-16T15:08:40;16.00;76.80
68217;DHT22;55037;52.354;4.992;2023-04-16T15:11:07;15.80;76.60
68217;DHT22;55037;52.354;4.992;2023-04-16T15:13:34;15.60;76.80
68217;DHT22;55037;52.354;4.992;2023-04-16T15:16:02;15.50;77.30
68217;DHT22;55037;52.354;4.992;2023-04-16T15:18:31;15.40;77.60
68217;DHT22;55037;52.354;4.992;2023-04-16T15:20:59;15.30;77.80
68217;DHT22;55037;52.354;4.992;2023-04-16T15:23:26;15.20;78.20
68217;DHT22;55037;52.354;4.992;2023-04-16T15:25:53;15.10;78.30
68217;DHT22;55037;52.354;4.992;2023-04-16T15:28:20;15.10;78.60
68217;DHT22;55037;52.354;4.992;2023-04-16T15:30:49;15.10;78.90
68217;DHT22;55037;52.354;4.992;2023-04-16T15:33:20;15.20;79.10
68217;DHT22;55037;52.354;4.992;2023-04-16T15:35:47;15.40;79.10
68217;DHT22;55037;52.354;4.992;2023-04-16T15:38:14;15.60;79.40
68217;DHT22;55037;52.354;4.992;2023-04-16T15:40:41;15.80;78.20
68217;DHT22;55037;52.354;4.992;2023-04-16T15:43:08;15.90;78.10
68217;DHT22;55037;52.354;4.992;2023-04-16T15:45:36;15.90;78.30
68217;DHT22;55037;52.354;4.992;2023-04-16T15:48:03;16.20;78.30
68217;DHT22;55037;52.354;4.992;2023-04-16T15:50:32;16.50;77.70
68217;DHT22;55037;52.354;4.992;2023-04-16T15:52:59;16.70;76.90
68217;DHT22;55037;52.354;4.992;2023-04-16T15:55:26;16.70;76.40